North Robinson, Ohio
Current Conditions -  °F | °C
As of 8:53 PM on Friday 28 Nov 2014 (Local Time) from KMNN Reporting Station
Overcast Overcast  
Wind Chill: 19°   Ceiling: 7000
Heat Index: 30°   Visibility: 10mi
Dew Point: 20°   Wind: 16mph
Humidity: 66%   Direction: 180°S
Pressure: 30.13"   Gusts: NA
Location:  40.79°N, 82.86°W
Report Text: KMNN 290153Z AUTO 18014KT 10SM BKN070 OVC120 M01/M07 A3013 RMK AO2 SLP216 T10111067 TSNO
Loading
Personal Weather Stations






























Interactive Weather Map New forecast layout! Learn more

10-Day Weather Forecast

Advertisements
Track Severe Weather on mobile